Time;durP1;ratioP1;P1;durP2;ratioP2;P2;SDS_P1;SDS_P2;PMS_P1;PMS_P2;Temp;Humidity;BMP_temperature;BMP_pressure;BME280_temperature;BME280_humidity;BME280_pressure;Samples;Min_cycle;Max_cycle;Signal;HPM_P1;HPM_P2
2024/03/17 00:01:41;;;;;;;4.28;2.28;;;8.50;99.90;;;;;;4971540;28;20039;-71
2024/03/17 00:04:07;;;;;;;3.30;1.40;;;8.50;99.90;;;;;;4972601;28;20059;-71
2024/03/17 00:06:33;;;;;;;3.25;1.75;;;8.50;99.90;;;;;;4983448;28;20039;-71
2024/03/17 00:09:00;;;;;;;3.33;1.98;;;8.50;99.90;;;;;;4997688;28;20435;-71
2024/03/17 00:11:26;;;;;;;5.53;1.80;;;8.60;99.90;;;;;;4971208;28;20141;-71
2024/03/17 00:13:52;;;;;;;3.13;1.58;;;8.60;99.90;;;;;;4973351;28;20030;-71
2024/03/17 00:16:18;;;;;;;4.43;1.85;;;8.50;99.90;;;;;;4972995;28;20042;-71
2024/03/17 00:18:46;;;;;;;20.73;6.15;;;8.20;99.90;;;;;;4973089;28;20479;-71
2024/03/17 00:21:13;;;;;;;10.75;5.47;;;8.30;99.90;;;;;;4971376;28;20030;-71
2024/03/17 00:23:39;;;;;;;4.55;2.35;;;8.40;99.90;;;;;;4988151;28;20049;-71
2024/03/17 00:26:05;;;;;;;5.95;3.20;;;8.20;99.90;;;;;;4977635;28;21400;-71
2024/03/17 00:28:30;;;;;;;4.68;2.05;;;8.10;99.90;;;;;;4976759;28;20497;-71
2024/03/17 00:30:56;;;;;;;6.68;2.08;;;7.90;99.90;;;;;;4967754;28;20034;-71
2024/03/17 00:33:22;;;;;;;4.38;1.92;;;7.90;99.90;;;;;;4996622;28;20071;-71
2024/03/17 00:35:48;;;;;;;5.35;2.15;;;8.00;99.90;;;;;;4993351;28;20138;-71
2024/03/17 00:38:13;;;;;;;17.35;2.38;;;7.90;99.90;;;;;;4973452;28;20487;-71
2024/03/17 00:40:44;;;;;;;7.47;2.63;;;7.80;99.90;;;;;;4972045;28;20038;-71
2024/03/17 00:43:11;;;;;;;5.40;2.58;;;7.80;99.90;;;;;;4971496;28;20507;-71
2024/03/17 00:45:37;;;;;;;4.68;2.08;;;7.70;99.90;;;;;;4998188;28;20226;-71
2024/03/17 00:48:06;;;;;;;5.78;3.00;;;7.70;99.90;;;;;;4980319;28;20034;-71
2024/03/17 00:50:32;;;;;;;4.20;2.08;;;7.70;99.90;;;;;;4981270;28;20078;-72
2024/03/17 00:52:57;;;;;;;5.93;2.40;;;7.60;99.90;;;;;;4979220;28;20039;-72
2024/03/17 00:55:23;;;;;;;4.68;2.50;;;7.60;99.90;;;;;;4987443;28;20039;-71
2024/03/17 00:57:49;;;;;;;5.50;2.83;;;7.60;99.90;;;;;;4972211;28;20488;-71
2024/03/17 01:00:15;;;;;;;5.80;2.50;;;7.50;99.90;;;;;;4965629;28;20050;-71
2024/03/17 01:02:41;;;;;;;6.63;2.30;;;7.40;99.90;;;;;;4996798;28;20432;-71
2024/03/17 01:05:08;;;;;;;10.07;2.72;;;7.30;99.90;;;;;;4969416;28;20075;-71
2024/03/17 01:07:34;;;;;;;4.85;2.30;;;7.30;99.90;;;;;;4996452;28;20468;-71
2024/03/17 01:10:00;;;;;;;11.93;2.10;;;7.20;99.90;;;;;;4985815;28;20034;-71
2024/03/17 01:12:33;;;;;;;3.35;2.20;;;7.20;99.90;;;;;;4971792;28;20050;-73
2024/03/17 01:14:59;;;;;;;4.03;2.33;;;7.20;99.90;;;;;;4993610;28;20030;-73
2024/03/17 01:17:25;;;;;;;3.42;1.80;;;7.20;99.90;;;;;;4980398;28;20044;-71
2024/03/17 01:19:51;;;;;;;6.03;2.35;;;7.00;99.90;;;;;;4969786;28;20388;-71
2024/03/17 01:22:17;;;;;;;10.45;2.85;;;6.70;99.90;;;;;;4971672;28;20031;-73
2024/03/17 01:24:46;;;;;;;6.35;2.30;;;6.70;99.90;;;;;;4971967;28;20038;-72
2024/03/17 01:27:16;;;;;;;4.97;1.75;;;6.70;99.90;;;;;;4981187;28;20070;-71
2024/03/17 01:29:43;;;;;;;4.57;2.15;;;6.60;99.90;;;;;;4971273;28;20118;-71
2024/03/17 01:32:10;;;;;;;4.53;2.05;;;6.60;99.90;;;;;;4958828;28;20042;-71
2024/03/17 01:34:38;;;;;;;4.68;2.22;;;6.70;99.90;;;;;;4959277;28;20038;-71
2024/03/17 01:37:04;;;;;;;6.30;2.83;;;6.70;99.90;;;;;;4985815;28;20071;-71
2024/03/17 01:39:31;;;;;;;3.05;1.90;;;6.70;99.90;;;;;;4976099;28;20034;-71
2024/03/17 01:41:58;;;;;;;5.90;2.75;;;6.70;99.90;;;;;;4980150;28;20109;-71
2024/03/17 01:44:27;;;;;;;4.20;2.10;;;6.70;99.90;;;;;;4958894;28;20038;-71
2024/03/17 01:46:55;;;;;;;4.63;2.22;;;6.80;99.90;;;;;;4985871;28;20031;-71
2024/03/17 01:49:22;;;;;;;4.05;2.38;;;6.70;99.90;;;;;;4989356;28;20043;-71
2024/03/17 01:51:50;;;;;;;8.20;2.58;;;6.70;99.90;;;;;;4980797;28;20563;-71
2024/03/17 01:54:16;;;;;;;4.47;2.38;;;6.60;99.90;;;;;;4968873;28;20410;-71
2024/03/17 01:56:43;;;;;;;6.38;2.85;;;6.60;99.90;;;;;;4977794;28;20027;-71
2024/03/17 01:59:09;;;;;;;5.88;2.45;;;6.60;99.90;;;;;;4987940;28;20097;-71
2024/03/17 02:01:36;;;;;;;3.78;2.33;;;6.60;99.90;;;;;;4986435;28;20130;-71
2024/03/17 02:04:05;;;;;;;5.97;2.50;;;6.50;99.90;;;;;;4982419;28;20026;-71
2024/03/17 02:06:30;;;;;;;4.63;2.35;;;6.60;99.90;;;;;;4966839;28;20890;-71
2024/03/17 02:08:56;;;;;;;4.28;1.67;;;6.30;99.90;;;;;;4983235;28;20117;-71
2024/03/17 02:11:33;;;;;;;8.10;2.67;;;6.40;99.90;;;;;;4971447;28;20606;-71
2024/03/17 02:14:01;;;;;;;25.27;3.03;;;6.40;99.90;;;;;;4983412;28;20093;-71
2024/03/17 02:16:27;;;;;;;3.85;2.47;;;6.40;99.90;;;;;;4971230;28;20118;-71
2024/03/17 02:18:57;;;;;;;6.03;2.45;;;6.30;99.90;;;;;;4967536;28;20442;-71
2024/03/17 02:21:24;;;;;;;4.38;3.00;;;6.40;99.90;;;;;;4985879;28;20034;-71
2024/03/17 02:23:51;;;;;;;6.68;2.63;;;6.40;99.90;;;;;;4984808;28;20019;-71
2024/03/17 02:26:18;;;;;;;8.68;3.42;;;6.40;99.90;;;;;;4974857;28;20345;-71
2024/03/17 02:28:46;;;;;;;5.05;2.45;;;6.40;99.90;;;;;;4971030;28;20057;-72
2024/03/17 02:31:15;;;;;;;4.03;2.63;;;6.40;99.90;;;;;;4973670;28;20054;-71
2024/03/17 02:33:43;;;;;;;5.60;2.53;;;6.40;99.90;;;;;;4976128;28;20069;-71
2024/03/17 02:36:11;;;;;;;4.78;2.25;;;6.40;99.90;;;;;;4979220;28;20039;-71
2024/03/17 02:41:28;;;;;;;5.55;3.05;;;6.30;99.90;;;;;;4981551;28;20035;-71
2024/03/17 02:43:54;;;;;;;8.57;2.58;;;6.20;99.90;;;;;;4971249;28;20026;-71
2024/03/17 02:46:20;;;;;;;4.40;2.67;;;6.20;99.90;;;;;;4974721;28;20539;-71
2024/03/17 02:48:52;;;;;;;4.85;3.08;;;6.20;99.90;;;;;;4975251;28;20034;-71
2024/03/17 02:51:21;;;;;;;4.22;2.35;;;6.20;99.90;;;;;;4989328;28;20038;-71
2024/03/17 02:53:49;;;;;;;13.50;2.80;;;6.20;99.90;;;;;;4988459;28;20042;-71
2024/03/17 02:56:16;;;;;;;4.20;2.20;;;6.20;99.90;;;;;;4982257;28;20022;-71
2024/03/17 02:58:47;;;;;;;4.78;1.92;;;6.00;99.90;;;;;;4976324;28;20030;-71
2024/03/17 03:01:14;;;;;;;5.60;2.38;;;5.90;99.90;;;;;;4981536;28;20502;-71
2024/03/17 03:03:40;;;;;;;8.70;3.25;;;6.00;99.90;;;;;;4974637;28;20034;-71
2024/03/17 03:06:11;;;;;;;5.80;3.28;;;6.00;99.90;;;;;;4982792;28;20045;-71
2024/03/17 03:08:41;;;;;;;3.83;2.15;;;6.00;99.90;;;;;;4981789;28;20025;-71
2024/03/17 03:11:12;;;;;;;4.03;2.00;;;5.70;99.90;;;;;;4977859;28;20042;-71
2024/03/17 03:13:42;;;;;;;4.60;2.33;;;5.60;99.90;;;;;;4975126;28;20045;-71
2024/03/17 03:16:11;;;;;;;5.25;2.42;;;5.60;99.90;;;;;;4985670;28;20042;-71
2024/03/17 03:18:41;;;;;;;4.32;2.10;;;5.60;99.90;;;;;;4994812;28;20694;-71
2024/03/17 03:21:07;;;;;;;2.95;1.98;;;5.60;99.90;;;;;;4982612;28;20046;-71
2024/03/17 03:23:34;;;;;;;4.57;2.35;;;5.50;99.90;;;;;;4980560;28;20442;-71
2024/03/17 03:26:04;;;;;;;4.25;2.35;;;5.50;99.90;;;;;;4974497;28;20575;-72
2024/03/17 03:28:33;;;;;;;5.15;2.17;;;5.40;99.90;;;;;;4988430;28;20027;-71
2024/03/17 03:30:59;;;;;;;3.55;2.47;;;5.50;99.90;;;;;;4976901;28;20035;-71
2024/03/17 03:33:25;;;;;;;8.07;3.28;;;5.60;99.90;;;;;;4977316;28;20101;-71
2024/03/17 03:35:50;;;;;;;4.00;2.13;;;5.60;99.90;;;;;;4988279;28;20038;-72
2024/03/17 03:38:18;;;;;;;5.75;2.35;;;5.60;99.90;;;;;;4971165;28;20039;-72
2024/03/17 03:40:44;;;;;;;10.63;2.47;;;5.70;99.90;;;;;;4988759;28;20081;-72
2024/03/17 03:43:11;;;;;;;3.95;2.40;;;5.70;99.90;;;;;;4976937;28;20039;-72
2024/03/17 03:45:37;;;;;;;4.88;2.80;;;5.70;99.90;;;;;;4970741;28;20029;-72
2024/03/17 03:48:04;;;;;;;4.70;2.25;;;5.80;99.90;;;;;;4977392;28;20086;-72
2024/03/17 03:50:31;;;;;;;4.53;2.50;;;5.80;99.90;;;;;;4987509;28;20029;-72
2024/03/17 03:52:56;;;;;;;3.47;2.00;;;5.80;99.90;;;;;;4968303;28;20031;-72
2024/03/17 03:55:23;;;;;;;4.60;2.90;;;5.80;99.90;;;;;;4987446;28;20061;-72
2024/03/17 03:57:52;;;;;;;4.38;2.22;;;5.80;99.90;;;;;;4981085;28;20034;-72
2024/03/17 04:00:21;;;;;;;3.97;2.17;;;5.80;99.90;;;;;;4972770;28;20089;-72
2024/03/17 04:02:52;;;;;;;4.03;2.35;;;5.80;99.90;;;;;;4981976;28;20045;-72
2024/03/17 04:05:19;;;;;;;3.20;2.22;;;5.80;99.90;;;;;;4986243;28;20023;-72
2024/03/17 04:07:47;;;;;;;2.95;1.73;;;5.70;99.90;;;;;;4979792;28;20030;-72
2024/03/17 04:10:15;;;;;;;3.22;2.38;;;5.60;99.90;;;;;;4981163;28;20792;-72
2024/03/17 04:12:41;;;;;;;4.75;1.92;;;5.60;99.90;;;;;;4972533;28;20479;-72
2024/03/17 04:15:09;;;;;;;3.58;2.13;;;5.50;99.90;;;;;;4972716;28;20027;-72
2024/03/17 04:17:37;;;;;;;2.80;1.73;;;5.40;99.90;;;;;;4972459;28;20027;-72
2024/03/17 04:20:08;;;;;;;4.40;2.63;;;5.40;99.90;;;;;;4987608;28;20023;-72
2024/03/17 04:22:34;;;;;;;2.88;1.75;;;5.40;99.90;;;;;;4986960;28;20539;-72
2024/03/17 04:25:00;;;;;;;3.88;1.85;;;5.30;99.90;;;;;;4987002;28;20122;-72
2024/03/17 04:27:29;;;;;;;3.90;1.63;;;5.30;99.90;;;;;;4988150;28;20109;-72
2024/03/17 04:29:57;;;;;;;14.10;2.78;;;5.20;99.90;;;;;;4986965;28;20113;-72
2024/03/17 04:32:23;;;;;;;4.03;2.28;;;5.20;99.90;;;;;;4970267;28;20443;-72
2024/03/17 04:34:50;;;;;;;7.32;1.83;;;5.20;99.90;;;;;;4975888;28;20031;-72
2024/03/17 04:37:16;;;;;;;3.15;1.48;;;5.20;99.90;;;;;;4976993;28;20546;-72
2024/03/17 04:39:45;;;;;;;4.38;2.47;;;5.20;99.90;;;;;;4976619;28;20085;-72
2024/03/17 04:42:15;;;;;;;2.63;2.08;;;5.20;99.90;;;;;;4978080;28;20074;-71
2024/03/17 04:44:42;;;;;;;4.20;1.77;;;5.30;99.90;;;;;;4966734;28;20030;-72
2024/03/17 04:47:09;;;;;;;5.80;3.15;;;5.30;99.90;;;;;;4971710;28;20054;-73
2024/03/17 04:49:43;;;;;;;11.07;1.88;;;5.10;99.90;;;;;;4989420;28;20093;-72
2024/03/17 04:52:12;;;;;;;5.28;3.13;;;5.20;99.90;;;;;;4975970;28;20133;-72
2024/03/17 04:54:37;;;;;;;7.03;1.50;;;5.20;99.90;;;;;;4978232;28;20082;-70
2024/03/17 04:57:04;;;;;;;3.63;2.53;;;5.30;99.90;;;;;;4976710;28;20043;-72
2024/03/17 04:59:30;;;;;;;4.82;2.08;;;5.40;99.90;;;;;;4991348;28;20031;-71
2024/03/17 05:01:55;;;;;;;3.92;1.75;;;5.20;99.90;;;;;;4971798;28;20026;-71
2024/03/17 05:04:21;;;;;;;3.72;2.42;;;5.30;99.90;;;;;;4977691;28;20023;-71
2024/03/17 05:06:49;;;;;;;4.80;2.10;;;5.30;99.90;;;;;;4977901;28;20058;-71
2024/03/17 05:09:17;;;;;;;9.45;2.75;;;5.40;99.90;;;;;;4970015;28;20391;-72
2024/03/17 05:11:43;;;;;;;7.50;2.15;;;5.40;99.90;;;;;;4979245;28;20034;-72
2024/03/17 05:14:09;;;;;;;2.90;2.20;;;5.40;99.90;;;;;;4988102;28;20046;-71
2024/03/17 05:16:35;;;;;;;6.57;2.35;;;5.10;99.90;;;;;;4970400;28;20030;-71
2024/03/17 05:19:01;;;;;;;4.22;2.30;;;5.10;99.90;;;;;;4973854;28;20391;-71
2024/03/17 05:21:30;;;;;;;3.40;2.40;;;5.20;99.90;;;;;;4971478;28;20030;-71
2024/03/17 05:24:00;;;;;;;2.47;1.80;;;5.20;99.90;;;;;;4969835;28;20522;-71
2024/03/17 05:26:25;;;;;;;7.93;1.88;;;5.20;99.90;;;;;;4993879;28;20019;-71
2024/03/17 05:28:51;;;;;;;4.18;2.03;;;5.20;99.90;;;;;;4969594;28;20126;-71
2024/03/17 05:31:18;;;;;;;3.97;1.90;;;5.20;99.90;;;;;;4977811;28;20053;-71
2024/03/17 05:33:47;;;;;;;11.65;2.80;;;5.20;99.90;;;;;;4974450;28;20066;-71
2024/03/17 05:36:14;;;;;;;3.90;2.20;;;5.10;99.90;;;;;;4991363;28;20038;-71
2024/03/17 05:38:39;;;;;;;3.13;2.03;;;5.30;99.90;;;;;;4984586;28;20026;-71
2024/03/17 05:41:08;;;;;;;4.38;2.67;;;5.30;99.90;;;;;;4970964;28;20550;-71
2024/03/17 05:43:38;;;;;;;11.23;2.47;;;5.40;99.90;;;;;;4985449;28;20027;-71
2024/03/17 05:46:12;;;;;;;2.30;1.42;;;5.40;99.90;;;;;;4967109;28;20499;-71
2024/03/17 05:48:40;;;;;;;3.25;1.58;;;5.40;99.90;;;;;;4992834;28;20503;-70
2024/03/17 05:51:08;;;;;;;3.38;2.05;;;5.30;99.90;;;;;;4959512;28;20042;-69
2024/03/17 05:53:34;;;;;;;5.05;2.08;;;5.30;99.90;;;;;;4970309;28;20058;-69
2024/03/17 05:56:02;;;;;;;3.28;2.20;;;5.20;99.90;;;;;;4969422;28;20106;-70
2024/03/17 05:58:28;;;;;;;6.43;2.42;;;5.20;99.90;;;;;;4969880;28;20060;-73
2024/03/17 06:00:53;;;;;;;2.22;1.33;;;5.10;99.90;;;;;;4987052;28;20035;-70
2024/03/17 06:03:21;;;;;;;3.55;1.80;;;5.00;99.90;;;;;;4971418;28;20034;-69
2024/03/17 06:05:47;;;;;;;5.13;2.35;;;5.10;99.90;;;;;;4970133;28;20031;-70
2024/03/17 06:08:14;;;;;;;4.85;2.17;;;5.00;99.90;;;;;;4975400;28;20027;-74
2024/03/17 06:10:49;;;;;;;5.45;2.03;;;4.90;99.90;;;;;;4989029;28;20066;-70
2024/03/17 06:13:16;;;;;;;4.10;2.40;;;5.00;99.90;;;;;;4970242;28;20360;-68
2024/03/17 06:15:44;;;;;;;2.45;1.38;;;5.10;99.90;;;;;;4986706;28;20038;-69
2024/03/17 06:18:14;;;;;;;3.85;2.05;;;5.20;99.90;;;;;;4974358;28;20031;-72
2024/03/17 06:20:45;;;;;;;4.90;2.25;;;5.30;99.90;;;;;;4985571;28;20074;-72
2024/03/17 06:23:17;;;;;;;3.30;1.85;;;5.40;99.90;;;;;;4966053;28;20578;-72
2024/03/17 06:25:48;;;;;;;3.45;1.73;;;5.50;99.90;;;;;;4988394;28;20523;-72
2024/03/17 06:28:16;;;;;;;3.05;1.65;;;5.50;99.90;;;;;;4979130;28;20131;-71
2024/03/17 06:30:54;;;;;;;4.78;1.90;;;5.60;99.90;;;;;;4974211;28;20030;-72
2024/03/17 06:33:20;;;;;;;5.45;2.35;;;5.70;99.90;;;;;;4971951;28;20547;-72
2024/03/17 06:35:47;;;;;;;4.43;2.53;;;5.90;99.90;;;;;;4989058;28;20041;-72
2024/03/17 06:38:15;;;;;;;2.08;1.58;;;6.00;99.90;;;;;;4981671;28;20051;-72
2024/03/17 06:40:44;;;;;;;4.78;2.40;;;6.10;99.90;;;;;;4977594;28;20039;-72
2024/03/17 06:43:10;;;;;;;4.50;1.77;;;6.20;99.90;;;;;;4984380;28;20483;-72
2024/03/17 06:45:35;;;;;;;7.25;1.67;;;6.40;99.90;;;;;;4989177;28;20089;-71
2024/03/17 06:48:01;;;;;;;3.05;1.77;;;6.50;99.90;;;;;;4975140;28;20023;-72
2024/03/17 06:50:27;;;;;;;2.65;1.85;;;6.70;99.90;;;;;;4989568;28;20519;-71
2024/03/17 06:52:53;;;;;;;3.28;1.83;;;6.50;99.90;;;;;;4977620;28;20089;-71
2024/03/17 06:55:21;;;;;;;3.35;1.70;;;6.60;99.90;;;;;;4977258;28;20038;-71
2024/03/17 06:57:47;;;;;;;9.07;2.65;;;6.70;99.90;;;;;;4978154;28;20037;-72
2024/03/17 07:00:14;;;;;;;4.05;2.00;;;6.90;99.90;;;;;;4981718;28;20054;-72
2024/03/17 07:02:44;;;;;;;3.92;2.40;;;7.00;99.90;;;;;;4991584;28;20074;-73
2024/03/17 07:05:16;;;;;;;4.80;2.17;;;7.10;99.90;;;;;;4975963;28;20031;-72
2024/03/17 07:07:43;;;;;;;3.35;1.73;;;7.30;99.90;;;;;;4975126;28;20041;-72
2024/03/17 07:10:11;;;;;;;2.25;1.38;;;7.30;99.90;;;;;;4972606;28;20038;-71
2024/03/17 07:12:41;;;;;;;2.67;2.17;;;7.40;99.90;;;;;;4972119;28;20030;-73
2024/03/17 07:15:08;;;;;;;4.50;2.53;;;7.50;99.90;;;;;;4977471;28;20380;-72
2024/03/17 07:17:34;;;;;;;43.50;21.00;;;7.60;99.90;;;;;;4986800;28;20027;-73
2024/03/17 07:20:01;;;;;;;21.17;8.45;;;7.60;99.90;;;;;;4976217;28;20031;-76
2024/03/17 07:22:28;;;;;;;47.00;17.95;;;7.70;99.90;;;;;;4986714;28;20031;-72
2024/03/17 07:25:01;;;;;;;10.65;4.47;;;7.90;99.90;;;;;;4987318;28;20181;-72
2024/03/17 07:27:29;;;;;;;2.58;1.77;;;8.00;99.90;;;;;;4974019;28;20026;-72
2024/03/17 07:29:55;;;;;;;2.75;1.73;;;8.10;99.90;;;;;;4974272;28;20436;-72
2024/03/17 07:32:23;;;;;;;3.97;1.70;;;8.20;99.90;;;;;;4982471;28;20054;-72
2024/03/17 07:34:49;;;;;;;3.95;1.98;;;8.10;99.90;;;;;;4969653;28;20093;-73
2024/03/17 07:37:16;;;;;;;6.53;2.20;;;8.30;99.90;;;;;;4974904;28;20035;-72
2024/03/17 07:39:41;;;;;;;2.78;2.10;;;8.40;99.90;;;;;;4971642;28;20042;-71
2024/03/17 07:42:07;;;;;;;9.05;2.72;;;8.60;99.90;;;;;;4974325;28;20122;-71
2024/03/17 07:44:34;;;;;;;7.03;3.03;;;8.80;99.90;;;;;;4985178;28;20102;-71
2024/03/17 07:47:07;;;;;;;6.15;3.00;;;8.80;99.90;;;;;;4974282;28;20019;-71
2024/03/17 07:49:33;;;;;;;4.07;1.80;;;8.90;99.90;;;;;;4975698;28;20058;-71
2024/03/17 07:52:00;;;;;;;13.82;2.90;;;9.10;99.90;;;;;;4977643;28;20034;-71
2024/03/17 07:54:26;;;;;;;12.63;2.95;;;9.30;99.90;;;;;;4968003;28;20154;-71
2024/03/17 07:56:52;;;;;;;7.72;2.70;;;9.60;99.90;;;;;;4989687;28;20030;-72
2024/03/17 07:59:18;;;;;;;11.25;2.53;;;9.30;99.90;;;;;;4974403;28;20439;-77
2024/03/17 08:01:47;;;;;;;6.43;3.10;;;9.30;99.90;;;;;;4987745;28;20039;-73
2024/03/17 08:04:13;;;;;;;3.55;2.03;;;9.60;99.90;;;;;;4973165;28;20062;-62
2024/03/17 08:06:42;;;;;;;4.18;2.85;;;9.80;99.90;;;;;;4986945;28;20066;-76
2024/03/17 08:09:08;;;;;;;5.10;2.25;;;9.90;99.90;;;;;;4950979;28;20049;-72
2024/03/17 08:11:35;;;;;;;10.20;2.45;;;10.10;99.90;;;;;;4994916;28;20034;-72
2024/03/17 08:14:01;;;;;;;34.08;15.05;;;10.20;99.90;;;;;;4984878;28;20401;-72
2024/03/17 08:16:29;;;;;;;7.93;5.07;;;9.90;99.90;;;;;;4988362;28;20443;-71
2024/03/17 08:18:58;;;;;;;4.97;2.53;;;10.00;99.90;;;;;;4977659;28;20022;-71
2024/03/17 08:21:24;;;;;;;7.55;2.58;;;10.00;99.90;;;;;;4973630;28;20064;-71
2024/03/17 08:23:50;;;;;;;6.95;2.50;;;10.00;99.90;;;;;;4991171;28;20026;-72
2024/03/17 08:26:16;;;;;;;9.43;3.15;;;10.00;99.90;;;;;;4989432;28;20027;-71
2024/03/17 08:28:42;;;;;;;3.00;1.90;;;10.20;99.90;;;;;;4984856;28;20034;-72
2024/03/17 08:31:07;;;;;;;7.03;2.72;;;10.40;99.90;;;;;;4972529;28;20391;-73
2024/03/17 08:33:33;;;;;;;5.70;2.40;;;10.60;99.90;;;;;;4969854;28;20502;-72
2024/03/17 08:36:20;;;;;;;3.90;2.20;;;10.90;99.90;;;;;;4971937;28;20027;-72
2024/03/17 08:38:46;;;;;;;6.30;2.80;;;11.10;99.90;;;;;;4974439;28;20023;-64
2024/03/17 08:41:13;;;;;;;7.75;3.10;;;10.40;99.90;;;;;;4985419;28;20031;-63
2024/03/17 08:43:40;;;;;;;3.90;2.60;;;10.90;99.90;;;;;;4978432;28;20027;-67
2024/03/17 08:46:08;;;;;;;5.03;2.42;;;10.40;99.90;;;;;;4970682;28;20424;-65
2024/03/17 08:48:36;;;;;;;4.38;2.40;;;10.50;99.90;;;;;;4987500;28;20022;-65
2024/03/17 08:51:05;;;;;;;4.20;2.17;;;10.60;99.90;;;;;;4970239;28;20051;-66
2024/03/17 08:53:32;;;;;;;5.63;2.75;;;10.60;99.90;;;;;;4980775;28;20554;-64
2024/03/17 08:55:59;;;;;;;5.05;2.40;;;10.60;99.90;;;;;;4974977;28;20031;-64
2024/03/17 08:58:26;;;;;;;5.50;2.63;;;10.70;99.90;;;;;;4987438;28;20480;-66
2024/03/17 09:00:52;;;;;;;13.75;3.70;;;11.00;99.90;;;;;;4991551;28;20140;-64
2024/03/17 09:03:18;;;;;;;6.93;3.17;;;11.20;99.90;;;;;;4976111;28;20837;-65
2024/03/17 09:05:47;;;;;;;6.75;1.88;;;10.40;99.90;;;;;;4973565;28;20030;-64
2024/03/17 09:08:24;;;;;;;5.28;2.13;;;10.50;99.90;;;;;;4987203;28;20105;-68
2024/03/17 09:10:55;;;;;;;4.35;2.30;;;10.80;99.90;;;;;;4995237;28;20392;-73
2024/03/17 09:13:23;;;;;;;4.50;1.90;;;11.20;99.90;;;;;;4975339;28;20740;-73
2024/03/17 09:16:00;;;;;;;3.63;1.98;;;11.50;99.90;;;;;;4970315;28;20032;-70
2024/03/17 09:18:31;;;;;;;6.03;2.80;;;11.80;99.90;;;;;;4991659;28;20494;-73
2024/03/17 09:21:07;;;;;;;6.22;2.67;;;11.90;99.90;;;;;;4969621;28;20533;-75
2024/03/17 09:23:34;;;;;;;4.03;2.38;;;12.10;99.90;;;;;;4972535;28;20109;-75
2024/03/17 09:26:08;;;;;;;4.20;2.42;;;12.00;99.90;;;;;;4969024;28;20542;-75
2024/03/17 09:28:35;;;;;;;4.65;2.67;;;11.60;99.90;;;;;;4976006;28;20487;-75
2024/03/17 09:31:01;;;;;;;4.28;2.45;;;11.30;99.90;;;;;;4977754;28;20023;-74
2024/03/17 09:33:29;;;;;;;5.80;2.58;;;11.10;99.90;;;;;;4987967;28;20081;-76
2024/03/17 09:36:06;;;;;;;7.32;2.40;;;11.10;99.90;;;;;;4998230;28;20088;-78
2024/03/17 09:38:34;;;;;;;3.65;1.90;;;11.50;99.90;;;;;;4979324;28;20495;-76
2024/03/17 09:41:03;;;;;;;13.00;2.55;;;11.30;99.90;;;;;;4975600;28;20026;-77
2024/03/17 09:43:32;;;;;;;8.32;2.38;;;11.90;99.90;;;;;;4986832;28;20065;-75
2024/03/17 09:45:57;;;;;;;5.75;2.28;;;11.50;99.90;;;;;;4971660;28;20117;-78
2024/03/17 09:48:28;;;;;;;3.72;2.22;;;12.10;99.90;;;;;;4987889;28;20670;-76
2024/03/17 09:51:05;;;;;;;4.25;2.42;;;12.00;99.90;;;;;;4977861;28;20027;-76
2024/03/17 09:53:32;;;;;;;6.43;2.70;;;11.90;99.90;;;;;;4974469;28;20383;-76
2024/03/17 09:56:12;;;;;;;5.22;2.67;;;12.20;99.90;;;;;;4970675;28;20027;-76
2024/03/17 09:58:38;;;;;;;4.95;2.17;;;12.70;99.90;;;;;;4987621;28;20023;-76
2024/03/17 10:01:05;;;;;;;6.03;2.70;;;12.50;99.90;;;;;;4968863;28;20461;-75
2024/03/17 10:04:05;;;;;;;4.47;2.67;;;12.20;99.90;;;;;;4986655;28;20046;-75
2024/03/17 10:06:31;;;;;;;5.55;3.20;;;12.00;99.90;;;;;;4966540;28;20562;-73
2024/03/17 10:09:03;;;;;;;4.93;2.40;;;12.50;99.90;;;;;;4963277;28;20023;-75
2024/03/17 10:11:36;;;;;;;5.63;2.72;;;12.20;99.90;;;;;;4984646;28;20074;-74
2024/03/17 10:14:08;;;;;;;5.82;2.17;;;12.40;99.90;;;;;;4971428;28;20479;-76
2024/03/17 10:16:36;;;;;;;4.07;2.03;;;12.60;99.90;;;;;;4980066;28;20053;-73
2024/03/17 10:19:21;;;;;;;6.65;3.38;;;13.10;99.90;;;;;;4978791;28;20031;-76
2024/03/17 10:21:48;;;;;;;4.45;1.95;;;13.10;99.90;;;;;;4984086;28;20128;-75
2024/03/17 10:24:24;;;;;;;4.07;2.15;;;12.40;99.90;;;;;;4970994;28;20035;-74
2024/03/17 10:26:56;;;;;;;3.65;2.25;;;12.90;99.90;;;;;;4985294;28;20086;-75
2024/03/17 10:29:31;;;;;;;6.03;2.47;;;13.40;99.90;;;;;;4975073;28;20038;-77
2024/03/17 10:31:59;;;;;;;5.28;2.25;;;13.10;99.90;;;;;;4987407;28;20177;-76
2024/03/17 10:34:28;;;;;;;3.67;2.30;;;13.80;99.90;;;;;;4975127;28;20026;-75
2024/03/17 10:37:06;;;;;;;4.95;2.50;;;14.20;99.90;;;;;;4968108;28;20025;-77
2024/03/17 10:39:33;;;;;;;4.95;2.47;;;14.20;99.90;;;;;;4983067;28;20034;-74
2024/03/17 10:42:05;;;;;;;4.30;2.38;;;14.10;99.90;;;;;;4988123;28;20023;-75
2024/03/17 10:44:34;;;;;;;6.72;2.45;;;13.90;99.90;;;;;;4989940;28;20034;-75
2024/03/17 10:47:02;;;;;;;4.38;2.22;;;13.60;99.90;;;;;;4968695;28;20041;-73
2024/03/17 10:49:33;;;;;;;4.25;2.05;;;14.30;99.90;;;;;;4990327;28;20023;-72
2024/03/17 10:52:15;;;;;;;5.50;2.20;;;13.90;99.90;;;;;;4975577;28;20034;-73
2024/03/17 10:54:47;;;;;;;5.80;2.47;;;13.60;99.90;;;;;;4979382;28;20037;-75
2024/03/17 10:57:34;;;;;;;8.43;4.32;;;13.50;99.90;;;;;;4997502;28;20035;-74
2024/03/17 11:00:08;;;;;;;8.82;4.30;;;13.90;99.90;;;;;;4987047;28;20038;-74
2024/03/17 11:02:38;;;;;;;6.40;2.75;;;14.00;99.90;;;;;;4971524;28;20038;-76
2024/03/17 11:05:11;;;;;;;5.03;2.63;;;14.50;99.90;;;;;;4977923;28;20432;-77
2024/03/17 11:07:43;;;;;;;4.70;2.58;;;14.70;99.90;;;;;;4984065;28;20035;-76
2024/03/17 11:10:11;;;;;;;3.75;2.05;;;14.50;99.60;;;;;;4988567;28;20070;-76
2024/03/17 11:12:44;;;;;;;5.65;2.33;;;14.00;99.90;;;;;;4955908;28;20475;-73
2024/03/17 11:15:19;;;;;;;6.28;2.60;;;14.00;99.90;;;;;;4970727;28;20041;-77
2024/03/17 11:17:51;;;;;;;5.57;2.58;;;13.90;99.90;;;;;;4983265;28;20038;-70
2024/03/17 11:20:30;;;;;;;3.60;1.55;;;14.00;99.90;;;;;;4989024;28;20118;-70
2024/03/17 11:22:59;;;;;;;6.53;2.20;;;14.00;99.90;;;;;;4982079;28;20057;-75
2024/03/17 11:25:31;;;;;;;3.22;1.52;;;14.40;99.90;;;;;;4974888;28;20027;-74
2024/03/17 11:27:57;;;;;;;5.30;2.15;;;14.20;99.90;;;;;;4975156;28;20114;-75
2024/03/17 11:30:46;;;;;;;4.10;2.00;;;14.70;99.90;;;;;;4989248;28;20035;-72
2024/03/17 11:33:30;;;;;;;7.53;2.90;;;14.90;99.90;;;;;;4968247;28;20042;-70
2024/03/17 11:36:21;;;;;;;3.33;1.73;;;14.60;99.80;;;;;;4978461;28;20041;-70
2024/03/17 11:39:03;;;;;;;6.78;2.45;;;14.10;99.90;;;;;;4975629;28;20082;-70
2024/03/17 11:41:42;;;;;;;7.22;2.50;;;14.50;99.90;;;;;;4976674;28;20142;-71
2024/03/17 11:44:26;;;;;;;5.57;2.40;;;14.80;99.90;;;;;;5007925;28;20039;-71
2024/03/17 11:46:56;;;;;;;3.30;2.13;;;14.20;99.90;;;;;;4987562;28;20094;-71
2024/03/17 11:49:27;;;;;;;4.65;2.17;;;14.10;99.90;;;;;;5005602;28;20109;-71
2024/03/17 11:52:06;;;;;;;6.97;2.53;;;14.40;99.90;;;;;;4996848;28;20042;-73
2024/03/17 11:54:37;;;;;;;4.93;2.05;;;14.90;99.90;;;;;;5015833;28;20053;-72
2024/03/17 11:57:04;;;;;;;;;;;14.80;99.90;;;;;;4996908;28;20539;-72
2024/03/17 11:59:30;;;;;;;4.65;2.05;;;15.30;99.70;;;;;;4999084;28;19909;-71
2024/03/17 12:01:56;;;;;;;4.20;2.35;;;15.70;98.10;;;;;;5005269;28;20027;-71
2024/03/17 12:04:24;;;;;;;4.70;2.35;;;15.10;99.10;;;;;;4985834;28;20038;-71
2024/03/17 12:06:56;;;;;;;6.00;2.20;;;15.60;98.60;;;;;;5003880;28;20417;-71
2024/03/17 12:09:30;;;;;;;4.30;2.22;;;14.70;99.90;;;;;;4991180;28;20027;-71
2024/03/17 12:12:16;;;;;;;5.47;2.10;;;14.50;99.90;;;;;;4994898;28;20031;-72
2024/03/17 12:14:42;;;;;;;3.55;2.13;;;15.10;99.90;;;;;;4980644;28;20506;-72
2024/03/17 12:17:11;;;;;;;5.57;2.15;;;15.00;97.40;;;;;;4987512;28;20066;-72
2024/03/17 12:19:42;;;;;;;4.03;2.03;;;15.00;97.60;;;;;;4991528;28;20031;-72
2024/03/17 12:22:08;;;;;;;2.85;1.95;;;15.10;98.10;;;;;;4983892;28;20543;-72
2024/03/17 12:24:37;;;;;;;5.25;2.10;;;14.70;97.40;;;;;;4982952;28;20038;-72
2024/03/17 12:27:08;;;;;;;4.60;2.22;;;14.70;98.60;;;;;;4994703;28;20244;-72
2024/03/17 12:29:42;;;;;;;3.75;1.80;;;14.70;98.00;;;;;;4982664;28;20031;-71
2024/03/17 12:32:17;;;;;;;4.22;2.25;;;14.30;98.40;;;;;;4979351;28;20034;-72
2024/03/17 12:34:49;;;;;;;4.18;2.08;;;14.20;99.90;;;;;;4988237;28;20037;-72
2024/03/17 12:37:19;;;;;;;5.10;2.70;;;13.90;99.90;;;;;;4979946;28;20043;-72
2024/03/17 12:39:49;;;;;;;5.03;2.33;;;14.00;99.90;;;;;;4986182;28;20405;-72
2024/03/17 12:42:33;;;;;;;6.35;2.10;;;13.90;99.90;;;;;;4985869;28;20038;-71
2024/03/17 12:45:02;;;;;;;6.43;2.97;;;13.80;99.90;;;;;;4985632;28;20038;-71
2024/03/17 12:47:31;;;;;;;7.90;2.92;;;14.10;99.90;;;;;;4974227;28;20026;-72
2024/03/17 12:50:01;;;;;;;5.80;2.88;;;14.20;99.90;;;;;;4976509;28;20023;-71
2024/03/17 12:52:33;;;;;;;9.82;2.92;;;13.80;99.90;;;;;;4971197;28;20424;-75
2024/03/17 13:01:06;;;;;;;5.35;2.35;;;14.40;99.90;;;;;;4971518;28;20049;-73
2024/03/17 13:03:35;;;;;;;5.60;2.95;;;14.30;99.90;;;;;;4984884;28;20050;-72
2024/03/17 13:06:07;;;;;;;58.67;24.13;;;14.30;99.90;;;;;;4969096;28;20109;-61
2024/03/17 13:08:33;;;;;;;10.38;5.00;;;14.30;99.90;;;;;;4984263;28;20411;-61
2024/03/17 13:11:00;;;;;;;4.38;2.10;;;14.20;99.90;;;;;;4973131;28;20041;-56